createdAt,value
2022-10-31T00:01:34.456Z,23.92
2022-10-31T00:04:01.852Z,24.92
2022-10-31T00:06:30.727Z,24.73
2022-10-31T00:09:00.115Z,24.52
2022-10-31T00:11:27.783Z,26.20
2022-10-31T00:13:55.544Z,23.05
2022-10-31T00:16:25.585Z,23.02
2022-10-31T00:18:53.870Z,24.75
2022-10-31T00:21:21.882Z,24.20
2022-10-31T00:23:50.651Z,23.55
2022-10-31T00:26:18.191Z,24.65
2022-10-31T00:28:45.672Z,24.33
2022-10-31T00:31:14.257Z,24.02
2022-10-31T00:33:42.393Z,25.33
2022-10-31T00:36:16.787Z,27.05
2022-10-31T00:38:44.553Z,27.92
2022-10-31T00:41:14.339Z,26.38
2022-10-31T00:43:42.159Z,25.33
2022-10-31T00:46:09.888Z,26.88
2022-10-31T00:48:37.328Z,26.52
2022-10-31T00:51:05.176Z,28.42
2022-10-31T00:53:33.505Z,25.33
2022-10-31T00:56:00.983Z,25.50
2022-10-31T00:58:29.951Z,24.27
2022-10-31T01:00:57.741Z,25.42
2022-10-31T01:03:25.660Z,24.92
2022-10-31T01:06:00.930Z,25.05
2022-10-31T01:08:28.619Z,25.27
2022-10-31T01:11:03.170Z,27.17
2022-10-31T01:13:32.292Z,26.13
2022-10-31T01:16:01.388Z,26.55
2022-10-31T01:18:29.204Z,25.08
2022-10-31T01:21:01.230Z,24.20
2022-10-31T01:23:29.232Z,25.25
2022-10-31T01:26:04.400Z,24.30
2022-10-31T01:28:35.416Z,23.10
2022-10-31T01:31:03.945Z,24.08
2022-10-31T01:33:31.530Z,24.58
2022-10-31T01:35:59.059Z,23.75
2022-10-31T01:38:26.544Z,22.85
2022-10-31T01:40:54.082Z,23.00
2022-10-31T01:45:56.527Z,23.15
2022-10-31T01:48:27.682Z,21.20
2022-10-31T01:50:56.197Z,21.30
2022-10-31T01:53:26.914Z,21.70
2022-10-31T01:55:54.970Z,21.30
2022-10-31T01:58:25.221Z,20.13
2022-10-31T02:00:59.623Z,20.23
2022-10-31T02:03:30.026Z,21.95
2022-10-31T02:05:59.011Z,23.35
2022-10-31T02:08:29.215Z,20.48
2022-10-31T02:10:57.048Z,20.77
2022-10-31T02:16:02.696Z,22.00
2022-10-31T02:18:31.594Z,23.60
2022-10-31T02:21:05.744Z,24.75
2022-10-31T02:26:32.477Z,22.58
2022-10-31T02:29:17.888Z,19.52
2022-10-31T02:31:51.624Z,20.25
2022-10-31T02:34:21.622Z,20.47
2022-10-31T02:36:54.637Z,20.92
2022-10-31T02:39:26.202Z,19.17
2022-10-31T02:42:00.981Z,18.65
2022-10-31T02:44:31.985Z,18.58
2022-10-31T02:47:03.423Z,16.83
2022-10-31T02:49:35.902Z,17.88
2022-10-31T02:52:03.328Z,17.52
2022-10-31T02:54:30.978Z,16.05
2022-10-31T02:57:03.252Z,18.17
2022-10-31T02:59:31.992Z,16.73
2022-10-31T03:02:20.598Z,16.10
2022-10-31T03:05:00.789Z,17.83
2022-10-31T03:07:33.002Z,16.83
2022-10-31T03:10:06.656Z,17.23
2022-10-31T03:12:43.152Z,16.92
2022-10-31T03:15:17.083Z,17.02
2022-10-31T03:17:53.094Z,18.27
2022-10-31T03:20:22.234Z,17.90
2022-10-31T03:22:50.305Z,16.95
2022-10-31T03:25:18.810Z,17.00
2022-10-31T03:27:47.362Z,16.23
2022-10-31T03:30:15.385Z,17.80
2022-10-31T03:32:58.112Z,16.70
2022-10-31T03:35:27.822Z,16.45
2022-10-31T03:37:56.857Z,16.08
2022-10-31T03:40:27.080Z,16.42
2022-10-31T03:42:57.022Z,17.08
2022-10-31T03:45:25.992Z,17.30
2022-10-31T03:47:55.452Z,18.33
2022-10-31T03:50:23.311Z,17.48
2022-10-31T03:52:55.814Z,17.55
2022-10-31T03:55:30.192Z,16.70
2022-10-31T03:58:01.203Z,18.10
2022-10-31T04:00:29.053Z,17.90
2022-10-31T04:03:01.765Z,17.60
2022-10-31T04:05:32.917Z,17.58
2022-10-31T04:08:03.824Z,17.20
2022-10-31T04:10:33.518Z,17.60
2022-10-31T04:13:05.750Z,18.70
2022-10-31T04:15:40.674Z,16.80
2022-10-31T04:18:09.520Z,18.48
2022-10-31T04:20:39.657Z,19.40
2022-10-31T04:23:16.092Z,18.05
2022-10-31T04:25:43.589Z,17.35
2022-10-31T04:28:11.155Z,17.08
2022-10-31T04:30:38.609Z,17.58
2022-10-31T04:33:06.011Z,17.25
2022-10-31T04:35:35.355Z,16.50
2022-10-31T04:38:02.794Z,18.38
2022-10-31T04:40:30.932Z,17.00
2022-10-31T04:45:52.235Z,16.85
2022-10-31T04:48:20.202Z,16.25
2022-10-31T04:50:49.000Z,16.25
2022-10-31T04:53:16.391Z,16.60
2022-10-31T04:56:02.496Z,16.60
2022-10-31T04:58:38.740Z,17.45
2022-10-31T05:01:09.441Z,17.05
2022-10-31T05:03:37.086Z,17.13
2022-10-31T05:06:06.275Z,17.63
2022-10-31T05:08:33.717Z,16.73
2022-10-31T05:11:04.782Z,16.70
2022-10-31T05:13:34.293Z,16.48
2022-10-31T05:16:13.876Z,16.50
2022-10-31T05:19:16.629Z,16.35
2022-10-31T05:22:11.401Z,15.45
2022-10-31T05:24:38.916Z,15.65
2022-10-31T05:27:06.330Z,15.57
2022-10-31T05:29:34.341Z,16.77
2022-10-31T05:32:02.316Z,17.23
2022-10-31T05:34:55.392Z,16.80
2022-10-31T05:37:48.672Z,16.92
2022-10-31T05:40:18.166Z,16.55
2022-10-31T05:42:45.874Z,16.52
2022-10-31T05:45:16.232Z,17.42
2022-10-31T05:48:12.709Z,17.58
2022-10-31T05:51:18.433Z,17.13
2022-10-31T05:53:47.989Z,17.00
2022-10-31T05:56:15.403Z,17.23
2022-10-31T05:58:42.810Z,17.10
2022-10-31T06:01:10.381Z,16.63
2022-10-31T06:03:39.101Z,16.17
2022-10-31T06:06:10.184Z,17.38
2022-10-31T06:08:41.029Z,18.08
2022-10-31T06:11:16.906Z,17.92
2022-10-31T06:14:02.848Z,17.15
2022-10-31T06:16:47.594Z,17.27
2022-10-31T06:19:39.698Z,16.23
2022-10-31T06:22:07.210Z,16.42
2022-10-31T06:24:35.244Z,17.15
2022-10-31T06:27:21.716Z,16.35
2022-10-31T06:29:49.960Z,16.20
2022-10-31T06:32:29.963Z,15.52
2022-10-31T06:34:57.388Z,16.75
2022-10-31T06:37:25.113Z,16.15
2022-10-31T06:39:54.573Z,16.35
2022-10-31T06:42:23.405Z,15.63
2022-10-31T06:44:51.168Z,16.02
2022-10-31T06:47:50.746Z,15.55
2022-10-31T06:50:28.449Z,14.50
2022-10-31T06:52:57.083Z,15.65
2022-10-31T06:55:25.265Z,13.82
2022-10-31T06:57:57.601Z,14.77
2022-10-31T07:00:29.612Z,14.52
2022-10-31T07:03:06.428Z,14.35
2022-10-31T07:05:35.379Z,13.93
2022-10-31T07:08:09.929Z,14.40
2022-10-31T07:10:40.494Z,14.35
2022-10-31T07:13:13.629Z,14.27
2022-10-31T07:15:43.832Z,15.02
2022-10-31T07:18:12.917Z,13.52
2022-10-31T07:20:40.468Z,13.27
2022-10-31T07:23:09.663Z,13.07
2022-10-31T07:25:37.964Z,12.55
2022-10-31T07:28:13.601Z,12.32
2022-10-31T07:30:41.409Z,12.68
2022-10-31T07:33:10.426Z,13.32
2022-10-31T07:36:00.435Z,12.07
2022-10-31T07:38:31.173Z,12.15
2022-10-31T07:41:00.712Z,11.88
2022-10-31T07:43:33.553Z,12.45
2022-10-31T07:46:29.667Z,11.23
2022-10-31T07:49:15.532Z,12.05
2022-10-31T07:52:01.447Z,11.65
2022-10-31T07:54:54.762Z,11.63
2022-10-31T07:57:25.333Z,11.55
2022-10-31T07:59:54.573Z,11.30
2022-10-31T08:02:22.357Z,10.77
2022-10-31T08:04:49.871Z,11.73
2022-10-31T08:07:38.636Z,10.40
2022-10-31T08:10:08.952Z,11.55
2022-10-31T08:12:36.566Z,10.85
2022-10-31T08:15:10.568Z,11.00
2022-10-31T08:17:38.433Z,11.15
2022-10-31T08:20:07.107Z,11.73
2022-10-31T08:22:43.911Z,11.45
2022-10-31T08:25:12.053Z,13.27
2022-10-31T08:27:40.171Z,12.68
2022-10-31T08:30:14.853Z,13.00
2022-10-31T08:33:00.402Z,12.85
2022-10-31T08:35:46.509Z,14.13
2022-10-31T08:38:33.884Z,14.43
2022-10-31T08:41:01.759Z,14.55
2022-10-31T08:43:29.491Z,14.57
2022-10-31T08:45:58.270Z,14.23
2022-10-31T08:48:30.268Z,15.10
2022-10-31T08:50:59.002Z,15.02
2022-10-31T08:53:27.405Z,14.70
2022-10-31T08:56:13.084Z,14.98
2022-10-31T08:58:40.593Z,14.98
2022-10-31T09:01:12.805Z,13.88
2022-10-31T09:03:40.336Z,14.05
2022-10-31T09:06:09.934Z,13.95
2022-10-31T09:08:38.558Z,14.13
2022-10-31T09:11:07.432Z,15.30
2022-10-31T09:13:54.032Z,14.20
2022-10-31T09:16:42.751Z,15.77
2022-10-31T09:19:16.964Z,15.55
2022-10-31T09:21:47.325Z,16.38
2022-10-31T09:24:14.811Z,15.90
2022-10-31T09:26:43.641Z,16.30
2022-10-31T09:29:27.264Z,16.80
2022-10-31T09:32:00.364Z,16.48
2022-10-31T09:34:32.055Z,16.83
2022-10-31T09:37:04.893Z,16.47
2022-10-31T09:39:35.453Z,17.17
2022-10-31T09:42:25.594Z,18.13
2022-10-31T09:45:02.076Z,17.70
2022-10-31T09:47:45.109Z,17.40
2022-10-31T09:50:40.081Z,18.40
2022-10-31T09:53:30.059Z,18.83
2022-10-31T09:55:58.329Z,18.00
2022-10-31T09:58:28.131Z,19.15
2022-10-31T10:00:58.889Z,17.92
2022-10-31T10:03:34.847Z,17.63
2022-10-31T10:06:16.818Z,17.77
2022-10-31T10:09:16.157Z,17.45
2022-10-31T10:12:10.301Z,18.75
2022-10-31T10:14:53.302Z,18.13
2022-10-31T10:17:29.129Z,18.40
2022-10-31T10:20:12.722Z,18.17
2022-10-31T10:22:45.495Z,17.65
2022-10-31T10:25:17.516Z,18.97
2022-10-31T10:27:53.275Z,16.92
2022-10-31T10:30:22.290Z,16.25
2022-10-31T10:32:54.570Z,16.10
2022-10-31T10:35:28.033Z,15.90
2022-10-31T10:38:00.852Z,15.55
2022-10-31T10:43:19.967Z,13.93
2022-10-31T10:46:11.880Z,15.63
2022-10-31T10:48:45.542Z,16.63
2022-10-31T10:51:38.990Z,16.10
2022-10-31T10:54:17.990Z,15.77
2022-10-31T10:56:54.068Z,18.45
2022-10-31T10:59:23.184Z,16.60
2022-10-31T11:01:52.132Z,17.10
2022-10-31T11:04:32.165Z,17.30
2022-10-31T11:07:02.745Z,16.65
2022-10-31T11:09:30.388Z,17.40
2022-10-31T11:11:58.369Z,17.80
2022-10-31T11:14:26.456Z,16.77
2022-10-31T11:16:57.037Z,17.00
2022-10-31T11:19:27.383Z,18.33
2022-10-31T11:21:55.987Z,19.13
2022-10-31T11:24:27.299Z,17.50
2022-10-31T11:27:07.363Z,17.02
2022-10-31T11:29:34.761Z,16.85
2022-10-31T11:32:02.326Z,15.35
2022-10-31T11:34:32.572Z,17.40
2022-10-31T11:37:05.083Z,14.93
2022-10-31T11:39:33.860Z,15.90
2022-10-31T11:42:07.829Z,18.52
2022-10-31T11:44:36.681Z,19.83
2022-10-31T11:47:05.815Z,16.25
2022-10-31T11:49:36.738Z,15.95
2022-10-31T11:52:07.438Z,17.23
2022-10-31T11:54:41.226Z,18.05
2022-10-31T11:57:26.980Z,16.95
2022-10-31T11:59:55.824Z,17.13
2022-10-31T12:02:23.591Z,19.92
2022-10-31T12:04:57.700Z,15.15
2022-10-31T12:07:25.557Z,16.92
2022-10-31T12:09:54.468Z,16.65
2022-10-31T12:12:39.696Z,17.52
2022-10-31T12:15:18.719Z,17.17
2022-10-31T12:17:52.251Z,16.13
2022-10-31T12:20:26.465Z,15.35
2022-10-31T12:23:00.738Z,15.80
2022-10-31T12:25:36.875Z,16.90
2022-10-31T12:28:25.474Z,17.42
2022-10-31T12:31:01.831Z,19.27
2022-10-31T12:33:43.847Z,16.60
2022-10-31T12:36:28.086Z,17.73
2022-10-31T12:39:25.648Z,20.85
2022-10-31T12:41:59.216Z,18.23
2022-10-31T12:44:45.837Z,18.52
2022-10-31T12:47:27.067Z,18.00
2022-10-31T12:50:01.648Z,20.25
2022-10-31T12:52:44.646Z,19.15
2022-10-31T12:55:22.499Z,19.03
2022-10-31T12:57:54.595Z,22.58
2022-10-31T13:00:24.254Z,18.27
2022-10-31T13:02:57.471Z,19.63
2022-10-31T13:05:29.863Z,21.95
2022-10-31T13:07:59.844Z,19.83
2022-10-31T13:10:31.652Z,20.65
2022-10-31T13:13:09.766Z,22.17
2022-10-31T13:15:47.055Z,22.75
2022-10-31T13:18:29.067Z,24.52
2022-10-31T13:20:57.694Z,22.80
2022-10-31T13:26:39.607Z,22.83
2022-10-31T13:29:15.527Z,24.00
2022-10-31T13:31:43.519Z,21.10
2022-10-31T13:34:20.437Z,23.40
2022-10-31T13:36:53.941Z,23.52
2022-10-31T13:39:27.503Z,23.52
2022-10-31T13:41:59.216Z,22.83
2022-10-31T13:44:32.213Z,24.20
2022-10-31T13:47:01.961Z,22.55
2022-10-31T13:49:40.324Z,24.00
2022-10-31T13:52:15.127Z,26.67
2022-10-31T13:54:44.594Z,27.48
2022-10-31T13:57:18.936Z,27.48
2022-10-31T13:59:52.569Z,24.40
2022-10-31T14:02:27.108Z,26.58
2022-10-31T14:04:57.529Z,24.58
2022-10-31T14:07:25.890Z,24.00
2022-10-31T14:09:58.526Z,26.48
2022-10-31T14:12:30.243Z,25.58
2022-10-31T14:15:01.802Z,25.98
2022-10-31T14:17:34.034Z,25.88
2022-10-31T14:20:36.432Z,27.30
2022-10-31T14:23:41.164Z,25.65
2022-10-31T14:26:19.929Z,28.95
2022-10-31T14:28:48.642Z,28.30
2022-10-31T14:31:37.461Z,26.15
2022-10-31T14:34:20.409Z,28.45
2022-10-31T14:37:01.524Z,28.88
2022-10-31T14:39:33.182Z,27.90
2022-10-31T14:42:12.962Z,26.75
2022-10-31T14:45:18.721Z,26.75
2022-10-31T14:47:59.969Z,29.80
2022-10-31T14:50:42.666Z,29.65
2022-10-31T14:53:15.204Z,27.77
2022-10-31T14:55:47.025Z,29.10
2022-10-31T14:58:17.998Z,28.75
2022-10-31T15:00:45.614Z,28.55
2022-10-31T15:03:17.727Z,30.05
2022-10-31T15:05:49.104Z,30.17
2022-10-31T15:08:31.949Z,30.05
2022-10-31T15:10:59.406Z,30.52
2022-10-31T15:13:26.862Z,32.35
2022-10-31T15:15:56.200Z,32.45
2022-10-31T15:18:26.459Z,32.95
2022-10-31T15:20:54.871Z,32.33
2022-10-31T15:23:24.133Z,33.10
2022-10-31T15:25:51.626Z,33.28
2022-10-31T15:28:24.521Z,34.95
2022-10-31T15:30:53.427Z,31.02
2022-10-31T15:33:23.117Z,32.38
2022-10-31T15:35:59.313Z,33.42
2022-10-31T15:38:27.348Z,33.03
2022-10-31T15:40:57.306Z,33.45
2022-10-31T15:43:24.758Z,32.60
2022-10-31T15:45:52.212Z,33.28
2022-10-31T15:48:21.474Z,34.13
2022-10-31T15:50:51.275Z,33.95
2022-10-31T15:53:22.241Z,34.03
2022-10-31T15:55:53.682Z,30.73
2022-10-31T15:58:21.388Z,30.85
2022-10-31T16:00:59.284Z,33.78
2022-10-31T16:03:28.586Z,34.10
2022-10-31T16:05:56.992Z,33.85
2022-10-31T16:08:35.296Z,34.13
2022-10-31T16:11:18.033Z,36.70
2022-10-31T16:13:55.371Z,43.40
2022-10-31T16:16:34.705Z,43.55
2022-10-31T16:19:04.827Z,46.05
2022-10-31T16:21:33.689Z,47.22
2022-10-31T16:24:06.170Z,48.67
2022-10-31T16:26:34.034Z,34.25
2022-10-31T16:29:08.496Z,50.53
2022-10-31T16:31:39.890Z,50.17
2022-10-31T16:34:16.266Z,49.47
2022-10-31T16:36:44.213Z,43.47
2022-10-31T16:39:14.516Z,40.55
2022-10-31T16:41:43.225Z,37.75
2022-10-31T16:44:19.028Z,38.67
2022-10-31T16:46:46.731Z,39.30
2022-10-31T16:49:16.332Z,41.60
2022-10-31T16:51:44.672Z,45.22
2022-10-31T16:54:13.785Z,44.55
2022-10-31T16:56:41.212Z,43.22
2022-10-31T16:59:16.100Z,44.90
2022-10-31T17:01:45.553Z,46.35
2022-10-31T17:04:15.346Z,48.70
2022-10-31T17:06:42.905Z,48.38
2022-10-31T17:09:10.675Z,49.92
2022-10-31T17:11:45.398Z,49.47
2022-10-31T17:14:16.875Z,48.22
2022-10-31T17:16:44.280Z,47.28
2022-10-31T17:19:12.550Z,47.70
2022-10-31T17:21:40.432Z,51.78
2022-10-31T17:24:08.554Z,53.03
2022-10-31T17:26:35.959Z,52.65
2022-10-31T17:29:04.805Z,57.42
2022-10-31T17:31:34.156Z,60.28
2022-10-31T17:34:03.752Z,65.32
2022-10-31T17:36:31.476Z,58.38
2022-10-31T17:38:58.984Z,57.35
2022-10-31T17:41:26.483Z,55.50
2022-10-31T17:43:56.237Z,52.95
2022-10-31T17:46:25.190Z,50.17
2022-10-31T17:48:52.601Z,49.85
2022-10-31T17:51:20.009Z,53.13
2022-10-31T17:53:47.414Z,49.17
2022-10-31T17:56:14.864Z,48.90
2022-10-31T17:58:42.297Z,46.80
2022-10-31T18:01:11.200Z,49.70
2022-10-31T18:03:40.501Z,58.80
2022-10-31T18:06:08.527Z,53.60
2022-10-31T18:08:37.446Z,51.72
2022-10-31T18:11:09.104Z,54.65
2022-10-31T18:13:37.150Z,51.60
2022-10-31T18:16:08.717Z,46.42
2022-10-31T18:18:36.107Z,47.25
2022-10-31T18:21:05.206Z,45.78
2022-10-31T18:23:32.643Z,44.90
2022-10-31T18:26:00.063Z,46.80
2022-10-31T18:28:27.488Z,48.22
2022-10-31T18:30:54.874Z,48.53
2022-10-31T18:33:22.364Z,48.78
2022-10-31T18:35:49.772Z,46.35
2022-10-31T18:38:18.524Z,47.95
2022-10-31T18:40:45.996Z,48.90
2022-10-31T18:43:13.387Z,49.00
2022-10-31T18:45:46.897Z,48.20
2022-10-31T18:48:17.202Z,51.28
2022-10-31T18:50:44.651Z,52.30
2022-10-31T18:53:12.084Z,58.25
2022-10-31T18:55:45.348Z,53.67
2022-10-31T18:58:16.723Z,54.88
2022-10-31T19:00:44.773Z,52.70
2022-10-31T19:03:12.808Z,53.10
2022-10-31T19:05:40.218Z,56.10
2022-10-31T19:08:07.983Z,57.65
2022-10-31T19:10:35.709Z,57.15
2022-10-31T19:13:05.909Z,57.50
2022-10-31T19:15:35.521Z,57.15
2022-10-31T19:18:03.085Z,54.33
2022-10-31T19:20:30.586Z,54.70
2022-10-31T19:22:58.802Z,57.72
2022-10-31T19:25:26.544Z,59.53
2022-10-31T19:27:54.021Z,61.53
2022-10-31T19:30:23.075Z,58.13
2022-10-31T19:32:54.902Z,59.83
2022-10-31T19:35:22.405Z,58.10
2022-10-31T19:37:49.831Z,60.15
2022-10-31T19:40:17.403Z,57.15
2022-10-31T19:42:44.805Z,56.47
2022-10-31T19:45:12.364Z,55.08
2022-10-31T19:47:41.146Z,53.15
2022-10-31T19:50:09.995Z,54.08
2022-10-31T19:52:37.396Z,53.30
2022-10-31T19:55:05.445Z,53.00
2022-10-31T19:58:01.280Z,52.83
2022-10-31T20:00:22.009Z,53.17
2022-10-31T20:02:50.891Z,54.35
2022-10-31T20:05:18.311Z,54.35
2022-10-31T20:07:45.770Z,51.90
2022-10-31T20:10:13.155Z,51.67
2022-10-31T20:12:40.564Z,53.35
2022-10-31T20:15:08.236Z,54.60
2022-10-31T20:17:35.658Z,55.30
2022-10-31T20:20:08.766Z,55.95
2022-10-31T20:22:36.764Z,55.60
2022-10-31T20:25:05.029Z,54.92
2022-10-31T20:27:32.655Z,56.17
2022-10-31T20:30:00.341Z,56.90
2022-10-31T20:32:27.780Z,58.53
2022-10-31T20:34:55.230Z,59.67
2022-10-31T20:37:24.843Z,63.28
2022-10-31T20:39:54.154Z,57.80
2022-10-31T20:42:24.198Z,57.60
2022-10-31T20:44:51.592Z,56.15
2022-10-31T20:47:22.003Z,58.33
2022-10-31T20:49:52.371Z,61.05
2022-10-31T20:52:20.116Z,59.45
2022-10-31T20:54:49.206Z,59.40
2022-10-31T20:57:16.911Z,63.08
2022-10-31T20:59:44.325Z,57.38
2022-10-31T21:02:12.169Z,60.15
2022-10-31T21:04:39.662Z,64.63
2022-10-31T21:07:07.076Z,61.35
2022-10-31T21:09:34.577Z,58.30
2022-10-31T21:12:03.287Z,58.28
2022-10-31T21:14:30.679Z,60.25
2022-10-31T21:16:58.060Z,61.65
2022-10-31T21:19:25.467Z,71.68
2022-10-31T21:21:52.867Z,69.20
2022-10-31T21:24:21.668Z,68.10
2022-10-31T21:26:51.144Z,64.00
2022-10-31T21:29:20.925Z,66.53
2022-10-31T21:31:48.736Z,61.75
2022-10-31T21:34:16.327Z,59.42
2022-10-31T21:36:43.714Z,57.65
2022-10-31T21:39:11.352Z,55.10
2022-10-31T21:41:38.763Z,52.58
2022-10-31T21:44:06.341Z,51.95
2022-10-31T21:46:35.280Z,53.15
2022-10-31T21:49:04.162Z,51.70
2022-10-31T21:51:32.852Z,51.55
2022-10-31T21:54:18.233Z,50.50
2022-10-31T21:56:45.784Z,51.80
2022-10-31T21:59:13.476Z,52.58
2022-10-31T22:01:42.242Z,51.03
2022-10-31T22:04:09.896Z,51.03
2022-10-31T22:06:38.511Z,52.85
2022-10-31T22:09:07.452Z,55.28
2022-10-31T22:11:35.312Z,51.78
2022-10-31T22:14:03.355Z,52.60
2022-10-31T22:16:31.757Z,51.65
2022-10-31T22:19:05.089Z,50.03
2022-10-31T22:21:39.403Z,52.85
2022-10-31T22:24:07.837Z,53.08
2022-10-31T22:26:35.728Z,52.83
2022-10-31T22:29:05.099Z,54.03
2022-10-31T22:31:33.990Z,58.42
2022-10-31T22:34:02.769Z,62.45
2022-10-31T22:36:31.857Z,65.32
2022-10-31T22:38:59.700Z,62.25
2022-10-31T22:41:28.886Z,68.88
2022-10-31T22:43:56.796Z,61.17
2022-10-31T22:46:25.458Z,61.58
2022-10-31T22:48:54.501Z,57.75
2022-10-31T22:51:24.599Z,58.35
2022-10-31T22:53:52.596Z,58.63
2022-10-31T22:56:21.994Z,55.58
2022-10-31T22:58:50.062Z,61.10
2022-10-31T23:01:19.561Z,60.97
2022-10-31T23:03:47.659Z,58.88
2022-10-31T23:06:18.499Z,55.42
2022-10-31T23:08:48.032Z,56.30
2022-10-31T23:11:17.257Z,54.95
2022-10-31T23:14:03.130Z,55.28
2022-10-31T23:16:30.905Z,57.05
2022-10-31T23:18:58.313Z,54.22
2022-10-31T23:21:55.746Z,56.55
2022-10-31T23:24:26.306Z,59.72
2022-10-31T23:27:06.136Z,56.28
2022-10-31T23:29:33.775Z,56.38
2022-10-31T23:32:01.335Z,55.53
2022-10-31T23:34:28.817Z,59.42
2022-10-31T23:36:56.466Z,56.22
2022-10-31T23:39:25.331Z,54.25
2022-10-31T23:41:52.999Z,57.80
2022-10-31T23:44:20.396Z,58.05
2022-10-31T23:46:47.810Z,59.25
2022-10-31T23:49:15.217Z,60.28
2022-10-31T23:51:42.634Z,60.00
2022-10-31T23:54:10.292Z,57.00
2022-10-31T23:56:39.020Z,59.30
2022-10-31T23:59:07.315Z,55.65
